Terminal Aerodrome Forecast
Issued by NWS

Home | Current Version | Previous Version | Text Only | Print | Product List | Glossary On
Versions: 1 2 3 4 5 6 7 8 9 10 11 12 13 14 15 16
000
FTUS46 KMFR 281740
TAFOTH
TAF
KOTH 281740Z 2818/2918 VRB03KT P6SM VCSH BKN120 OVC200
     FM282000 32008G15KT P6SM SCT025 BKN040
     FM290600 14006KT P6SM -RA BKN050 OVC100
     FM290900 16015G25KT 3SM RA BKN015 OVC025 WS020/20050KT
     FM291300 20025G35KT 3SM -SHRA BKN015 OVC025=

USA.gov is the U.S. government's official web portal to all federal, state and local government web resources and services.